Time;durP1;ratioP1;P1;durP2;ratioP2;P2;SDS_P1;SDS_P2;PMS_P1;PMS_P2;Temp;Humidity;BMP_temperature;BMP_pressure;BME280_temperature;BME280_humidity;BME280_pressure;Samples;Min_cycle;Max_cycle;Signal;HPM_P1;HPM_P2
2023/11/27 00:01:25;;;;;;;15.70;7.05;;;;;;;7.08;100.00;100991.16;5270069;28;20053;-74
2023/11/27 00:03:56;;;;;;;20.08;7.53;;;;;;;6.91;100.00;100986.50;5270276;27;20028;-74
2023/11/27 00:06:26;;;;;;;18.88;7.28;;;;;;;6.90;100.00;100984.81;5272787;28;20028;-75
2023/11/27 00:08:57;;;;;;;20.27;8.48;;;;;;;6.95;100.00;100982.56;5269043;28;20028;-74
2023/11/27 00:11:27;;;;;;;16.23;7.85;;;;;;;7.10;100.00;100970.50;5275147;28;20038;-75
2023/11/27 00:13:58;;;;;;;18.65;8.20;;;;;;;7.04;100.00;100968.41;5274274;28;20024;-74
2023/11/27 00:16:28;;;;;;;17.83;8.05;;;;;;;6.86;100.00;100965.56;5275777;28;20062;-75
2023/11/27 00:18:59;;;;;;;18.40;7.70;;;;;;;6.83;100.00;100963.19;5276699;28;20103;-74
2023/11/27 00:21:29;;;;;;;20.33;8.90;;;;;;;6.99;100.00;100959.97;5279377;28;20109;-74
2023/11/27 00:24:00;;;;;;;20.92;8.45;;;;;;;6.95;100.00;100953.22;5269350;28;20027;-74
2023/11/27 00:26:30;;;;;;;24.05;9.45;;;;;;;6.72;100.00;100950.81;5269326;28;20036;-75
2023/11/27 00:29:01;;;;;;;21.88;9.65;;;;;;;6.79;100.00;100948.44;5269764;27;20354;-75
2023/11/27 00:31:32;;;;;;;24.08;9.02;;;;;;;6.55;100.00;100943.50;5271684;28;20036;-72
2023/11/27 00:34:02;;;;;;;22.35;10.65;;;;;;;6.70;100.00;100935.94;5279048;28;20039;-72
2023/11/27 00:36:33;;;;;;;20.33;9.32;;;;;;;6.63;100.00;100932.16;5276294;28;20036;-73
2023/11/27 00:39:08;;;;;;;26.25;10.20;;;;;;;6.63;100.00;100921.50;5270158;28;20026;-73
2023/11/27 00:41:39;;;;;;;26.92;10.07;;;;;;;6.42;100.00;100921.59;5275591;28;20030;-73
2023/11/27 00:44:09;;;;;;;20.05;9.73;;;;;;;6.44;100.00;100912.50;5274134;28;20019;-73
2023/11/27 00:46:40;;;;;;;28.50;11.02;;;;;;;6.39;100.00;100908.56;5274972;28;20035;-73
2023/11/27 00:49:11;;;;;;;20.02;10.00;;;;;;;6.30;100.00;100904.06;5268154;28;20028;-73
2023/11/27 00:51:41;;;;;;;22.10;10.15;;;;;;;6.13;100.00;100893.09;5274308;28;20024;-76
2023/11/27 00:54:11;;;;;;;32.20;10.48;;;;;;;6.24;100.00;100889.47;5275193;28;20020;-76
2023/11/27 00:56:42;;;;;;;27.27;10.50;;;;;;;6.28;100.00;100887.38;5276847;28;20269;-76
2023/11/27 00:59:13;;;;;;;22.25;10.50;;;;;;;6.36;100.00;100874.19;5269796;28;20379;-76
2023/11/27 01:01:44;;;;;;;23.08;9.57;;;;;;;6.30;100.00;100872.91;5274378;28;20023;-76
2023/11/27 01:04:14;;;;;;;22.02;9.75;;;;;;;6.20;100.00;100862.25;5276056;28;20468;-76
2023/11/27 01:06:50;;;;;;;28.63;10.55;;;;;;;6.23;100.00;100866.47;5275805;28;20020;-76
2023/11/27 01:09:21;;;;;;;32.40;10.82;;;;;;;6.19;100.00;100860.56;5272984;28;20023;-76
2023/11/27 01:11:52;;;;;;;22.02;10.05;;;;;;;6.14;100.00;100854.81;5268683;28;20076;-76
2023/11/27 01:14:22;;;;;;;28.42;10.10;;;;;;;6.12;100.00;100846.09;5272347;28;20035;-76
2023/11/27 01:16:53;;;;;;;26.17;10.45;;;;;;;6.08;100.00;100846.53;5268731;28;20032;-76
2023/11/27 01:19:24;;;;;;;25.08;11.15;;;;;;;6.13;100.00;100834.47;5279389;28;20139;-76
2023/11/27 01:21:54;;;;;;;28.67;11.68;;;;;;;5.97;100.00;100829.69;5268539;28;20095;-76
2023/11/27 01:24:25;;;;;;;24.00;10.45;;;;;;;6.01;100.00;100827.56;5268361;28;20032;-76
2023/11/27 01:26:56;;;;;;;23.92;10.23;;;;;;;5.89;100.00;100821.50;5268100;28;20043;-76
2023/11/27 01:29:26;;;;;;;23.17;10.50;;;;;;;5.88;100.00;100827.81;5272442;28;20031;-76
2023/11/27 01:31:56;;;;;;;27.48;10.38;;;;;;;5.84;100.00;100814.91;5267192;28;20132;-76
2023/11/27 01:34:27;;;;;;;27.45;10.85;;;;;;;5.82;100.00;100807.03;5271523;28;20050;-76
2023/11/27 01:36:57;;;;;;;27.95;10.98;;;;;;;5.59;100.00;100798.44;5272312;28;20496;-75
2023/11/27 01:39:28;;;;;;;25.02;10.10;;;;;;;5.72;100.00;100785.75;5265852;28;20378;-76
2023/11/27 01:41:58;;;;;;;30.48;11.07;;;;;;;5.60;100.00;100780.66;5272490;28;20439;-75
2023/11/27 01:44:29;;;;;;;23.77;9.98;;;;;;;5.57;100.00;100776.47;5272477;28;20598;-75
2023/11/27 01:46:59;;;;;;;24.88;10.90;;;;;;;5.60;100.00;100778.00;5265977;28;20039;-76
2023/11/27 01:49:32;;;;;;;25.85;10.10;;;;;;;5.70;100.00;100773.53;5269594;28;20031;-75
2023/11/27 01:52:04;;;;;;;25.40;10.63;;;;;;;5.74;100.00;100780.28;5273784;28;20039;-73
2023/11/27 01:54:38;;;;;;;28.33;10.55;;;;;;;5.78;100.00;100765.72;5270532;28;20024;-73
2023/11/27 01:57:11;;;;;;;28.33;11.30;;;;;;;5.85;100.00;100772.16;5274204;28;20049;-72
2023/11/27 01:59:45;;;;;;;29.40;10.55;;;;;;;5.80;100.00;100761.09;5277327;28;20762;-73
2023/11/27 02:02:16;;;;;;;28.25;11.20;;;;;;;5.84;100.00;100762.50;5271283;28;20028;-73
2023/11/27 02:04:47;;;;;;;24.80;9.73;;;;;;;5.59;100.00;100755.03;5269210;28;20034;-73
2023/11/27 02:07:22;;;;;;;;;;;;;;;5.61;100.00;100748.56;5272877;28;20034;-73
2023/11/27 02:09:53;;;;;;;21.65;9.63;;;;;;;5.53;100.00;100735.13;5268887;28;19915;-73
2023/11/27 02:12:23;;;;;;;23.63;10.05;;;;;;;5.57;100.00;100731.22;5272020;28;20077;-73
2023/11/27 02:14:54;;;;;;;25.17;10.15;;;;;;;5.59;100.00;100731.06;5269557;28;20023;-73
2023/11/27 02:17:28;;;;;;;31.27;10.60;;;;;;;5.57;100.00;100725.03;5274731;28;20024;-73
2023/11/27 02:20:00;;;;;;;30.17;10.05;;;;;;;5.56;100.00;100720.69;5270908;28;20031;-73
2023/11/27 02:22:42;;;;;;;24.17;11.02;;;;;;;5.62;100.00;100714.81;5267150;28;20115;-73
2023/11/27 02:25:32;;;;;;;27.02;9.80;;;;;;;5.56;100.00;100699.41;5273386;28;20024;-73
2023/11/27 02:28:03;;;;;;;24.30;10.93;;;;;;;5.62;100.00;100697.06;5267553;28;20496;-73
2023/11/27 02:30:50;;;;;;;26.75;11.20;;;;;;;5.58;100.00;100682.31;5266234;28;20027;-73
2023/11/27 02:33:21;;;;;;;31.52;10.10;;;;;;;5.49;100.00;100677.81;5267907;28;20020;-73
2023/11/27 02:35:53;;;;;;;29.15;10.70;;;;;;;5.64;100.00;100667.63;5276209;28;20032;-73
2023/11/27 02:38:24;;;;;;;26.77;10.50;;;;;;;5.38;100.00;100654.00;5271120;28;20074;-73
2023/11/27 02:40:55;;;;;;;34.53;12.23;;;;;;;5.64;100.00;100664.97;5262407;28;20035;-73
2023/11/27 02:43:26;;;;;;;34.78;12.80;;;;;;;5.56;100.00;100649.69;5268906;28;20504;-73
2023/11/27 02:45:56;;;;;;;25.77;10.85;;;;;;;5.51;100.00;100643.09;5271711;28;20020;-73
2023/11/27 02:48:27;;;;;;;25.48;10.80;;;;;;;5.64;100.00;100646.34;5269266;28;20401;-73
2023/11/27 02:50:58;;;;;;;30.33;11.90;;;;;;;5.70;100.00;100641.28;5270681;28;20027;-73
2023/11/27 02:53:29;;;;;;;25.35;10.85;;;;;;;5.54;100.00;100629.53;5274606;28;20043;-73
2023/11/27 02:55:59;;;;;;;24.63;10.48;;;;;;;5.54;100.00;100625.03;5271094;28;20024;-73
2023/11/27 02:58:30;;;;;;;25.02;10.18;;;;;;;5.37;100.00;100615.06;5276675;28;20027;-74
2023/11/27 03:01:00;;;;;;;36.78;12.13;;;;;;;5.58;100.00;100614.97;5274512;28;20024;-73
2023/11/27 03:03:31;;;;;;;34.28;10.85;;;;;;;5.56;100.00;100606.25;5273413;28;20189;-73
2023/11/27 03:06:08;;;;;;;24.85;10.95;;;;;;;5.54;100.00;100601.09;5273087;28;20031;-73
2023/11/27 03:08:42;;;;;;;24.40;10.98;;;;;;;5.60;100.00;100584.56;5276977;28;20108;-73
2023/11/27 03:11:14;;;;;;;26.63;10.38;;;;;;;5.48;100.00;100577.69;5270375;28;20095;-73
2023/11/27 03:13:45;;;;;;;32.10;10.70;;;;;;;5.59;100.00;100574.91;5275563;28;20031;-73
2023/11/27 03:16:15;;;;;;;28.10;10.27;;;;;;;5.47;100.00;100565.34;5274041;28;20024;-73
2023/11/27 03:18:46;;;;;;;23.70;10.75;;;;;;;5.48;100.00;100550.25;5273314;28;20027;-73
2023/11/27 03:21:19;;;;;;;29.58;9.60;;;;;;;5.60;100.00;100543.78;5273033;28;20031;-73
2023/11/27 03:23:50;;;;;;;23.58;9.45;;;;;;;5.52;100.00;100547.16;5276455;28;20054;-73
2023/11/27 03:26:22;;;;;;;23.52;9.82;;;;;;;5.59;100.00;100542.97;5265708;28;20051;-73
2023/11/27 03:28:52;;;;;;;22.20;9.35;;;;;;;5.45;100.00;100525.59;5272635;27;20102;-74
2023/11/27 03:31:23;;;;;;;25.33;9.38;;;;;;;5.50;100.00;100516.34;5270732;28;20558;-73
2023/11/27 03:33:53;;;;;;;24.75;9.27;;;;;;;5.44;100.00;100513.28;5271664;28;20020;-73
2023/11/27 03:36:25;;;;;;;25.38;8.60;;;;;;;5.26;100.00;100514.97;5277267;28;20047;-73
2023/11/27 03:38:55;;;;;;;25.75;9.50;;;;;;;5.44;100.00;100501.81;5271844;28;20031;-73
2023/11/27 03:41:26;;;;;;;24.10;9.68;;;;;;;5.40;100.00;100485.28;5271490;28;20397;-73
2023/11/27 03:43:56;;;;;;;23.23;8.95;;;;;;;5.12;100.00;100486.97;5274607;28;20616;-73
2023/11/27 03:46:27;;;;;;;23.63;9.45;;;;;;;5.51;100.00;100478.97;5278061;28;20031;-73
2023/11/27 03:48:57;;;;;;;24.00;9.40;;;;;;;5.57;100.00;100467.75;5273617;28;20035;-73
2023/11/27 03:51:28;;;;;;;20.95;8.80;;;;;;;5.38;100.00;100455.31;5269826;28;20077;-73
2023/11/27 03:53:58;;;;;;;22.23;9.95;;;;;;;5.37;100.00;100458.97;5271702;28;20031;-73
2023/11/27 03:56:29;;;;;;;16.80;8.38;;;;;;;5.32;100.00;100439.94;5275541;28;20031;-73
2023/11/27 03:59:00;;;;;;;26.58;10.13;;;;;;;5.32;100.00;100428.44;5269040;28;20024;-73
2023/11/27 04:01:30;;;;;;;28.17;10.85;;;;;;;5.25;100.00;100424.69;5272617;28;20076;-73
2023/11/27 04:04:01;;;;;;;28.17;10.38;;;;;;;5.44;100.00;100422.00;5272934;28;20115;-73
2023/11/27 04:06:31;;;;;;;22.60;10.10;;;;;;;5.39;100.00;100395.81;5270308;28;20071;-73
2023/11/27 04:09:02;;;;;;;22.98;10.15;;;;;;;5.50;100.00;100389.47;5269776;28;20024;-73
2023/11/27 04:11:32;;;;;;;25.83;10.10;;;;;;;5.56;100.00;100393.38;5276870;28;20027;-73
2023/11/27 04:14:03;;;;;;;23.33;9.30;;;;;;;5.61;100.00;100388.47;5272844;28;20024;-73
2023/11/27 04:16:33;;;;;;;17.55;9.55;;;;;;;5.63;100.00;100391.84;5272888;28;20043;-74
2023/11/27 04:19:04;;;;;;;21.83;9.77;;;;;;;5.69;100.00;100377.94;5269288;28;20457;-73
2023/11/27 04:21:35;;;;;;;20.60;9.38;;;;;;;5.61;100.00;100376.00;5270071;28;20028;-73
2023/11/27 04:24:06;;;;;;;24.23;10.52;;;;;;;5.82;100.00;100381.09;5269872;28;20016;-74
2023/11/27 04:26:37;;;;;;;23.50;10.13;;;;;;;5.78;100.00;100376.22;5270792;28;20028;-73
2023/11/27 04:29:08;;;;;;;26.20;10.13;;;;;;;5.85;100.00;100367.50;5274142;28;20027;-73
2023/11/27 04:31:38;;;;;;;25.10;10.00;;;;;;;5.79;100.00;100360.09;5278227;28;20468;-76
2023/11/27 04:34:09;;;;;;;25.25;9.23;;;;;;;5.61;100.00;100352.03;5272470;28;20024;-76
2023/11/27 04:36:39;;;;;;;22.33;10.30;;;;;;;5.76;100.00;100355.06;5278473;28;20068;-76
2023/11/27 04:39:10;;;;;;;26.23;9.63;;;;;;;5.79;100.00;100353.94;5268733;28;20107;-76
2023/11/27 04:41:42;;;;;;;19.92;9.13;;;;;;;5.84;100.00;100347.19;5273531;28;20028;-75
2023/11/27 04:44:12;;;;;;;20.83;9.45;;;;;;;5.80;100.00;100337.81;5275040;28;20030;-75
2023/11/27 04:46:43;;;;;;;19.38;8.90;;;;;;;5.76;100.00;100335.59;5274355;28;20024;-75
2023/11/27 04:49:13;;;;;;;17.20;9.88;;;;;;;5.85;100.00;100332.88;5271258;28;20020;-75
2023/11/27 04:51:44;;;;;;;20.88;9.32;;;;;;;5.81;100.00;100323.50;5275732;28;20388;-75
2023/11/27 04:54:14;;;;;;;22.92;9.40;;;;;;;5.86;100.00;100313.25;5272033;28;20027;-75
2023/11/27 04:56:45;;;;;;;20.98;10.13;;;;;;;5.75;100.00;100310.81;5271729;28;20107;-76
2023/11/27 04:59:15;;;;;;;28.33;9.75;;;;;;;5.91;100.00;100307.50;5273234;28;20538;-76
2023/11/27 05:01:45;;;;;;;23.83;9.25;;;;;;;5.87;100.00;100293.66;5274341;28;20031;-76
2023/11/27 05:04:17;;;;;;;19.40;8.55;;;;;;;6.05;100.00;100288.38;5272753;28;20024;-76
2023/11/27 05:06:48;;;;;;;21.77;10.40;;;;;;;6.10;100.00;100282.59;5274378;28;20023;-76
2023/11/27 05:09:18;;;;;;;20.33;9.63;;;;;;;6.03;100.00;100284.19;5271362;28;20066;-76
2023/11/27 05:11:49;;;;;;;21.52;9.15;;;;;;;6.08;100.00;100277.44;5273344;28;20020;-76
2023/11/27 05:14:19;;;;;;;20.75;8.95;;;;;;;6.15;100.00;100272.34;5271745;28;20042;-76
2023/11/27 05:16:52;;;;;;;26.15;10.18;;;;;;;6.05;100.00;100264.41;5269431;28;20470;-76
2023/11/27 05:19:23;;;;;;;18.73;8.45;;;;;;;6.02;100.00;100262.03;5271030;28;20115;-73
2023/11/27 05:21:53;;;;;;;18.13;8.63;;;;;;;5.97;100.00;100248.34;5272599;28;20019;-73
2023/11/27 05:24:24;;;;;;;17.90;8.73;;;;;;;6.13;100.00;100237.88;5272060;28;20039;-73
2023/11/27 05:26:54;;;;;;;17.98;9.02;;;;;;;6.05;100.00;100232.44;5266872;28;20035;-73
2023/11/27 05:29:24;;;;;;;18.88;8.43;;;;;;;6.05;100.00;100232.44;5273362;28;20477;-73
2023/11/27 05:31:56;;;;;;;19.73;10.05;;;;;;;6.10;100.00;100224.84;5269583;28;20046;-73
2023/11/27 05:34:26;;;;;;;16.08;7.80;;;;;;;6.15;100.00;100222.56;5271351;28;20055;-73
2023/11/27 05:36:57;;;;;;;22.98;8.57;;;;;;;6.27;100.00;100212.50;5274900;28;20519;-73
2023/11/27 05:39:28;;;;;;;16.50;8.55;;;;;;;6.18;100.00;100202.78;5264877;28;20032;-73
2023/11/27 05:42:02;;;;;;;18.88;8.18;;;;;;;6.15;100.00;100201.25;5269136;28;20063;-73
2023/11/27 05:44:32;;;;;;;17.45;8.75;;;;;;;6.22;100.00;100194.34;5273517;28;20068;-73
2023/11/27 05:47:03;;;;;;;20.88;8.93;;;;;;;6.14;100.00;100186.28;5267780;28;20027;-73
2023/11/27 05:49:33;;;;;;;17.88;8.90;;;;;;;6.19;100.00;100183.16;5273271;28;20016;-73
2023/11/27 05:52:04;;;;;;;14.38;7.75;;;;;;;6.21;100.00;100174.00;5268328;28;20073;-73
2023/11/27 05:54:35;;;;;;;19.60;8.75;;;;;;;6.22;100.00;100173.03;5273301;28;20024;-73
2023/11/27 05:57:05;;;;;;;21.33;9.10;;;;;;;6.20;100.00;100180.31;5267892;28;20470;-73
2023/11/27 05:59:36;;;;;;;16.90;8.93;;;;;;;6.16;100.00;100170.97;5273059;28;20028;-73
2023/11/27 06:02:08;;;;;;;29.25;9.65;;;;;;;6.36;100.00;100166.28;5271248;28;20024;-72
2023/11/27 06:04:38;;;;;;;14.82;8.23;;;;;;;6.23;100.00;100149.88;5272794;28;20027;-73
2023/11/27 06:07:09;;;;;;;22.77;9.45;;;;;;;6.36;100.00;100158.28;5266867;28;20055;-73
2023/11/27 06:09:39;;;;;;;18.98;9.10;;;;;;;6.39;100.00;100151.84;5270433;28;20038;-73
2023/11/27 06:12:10;;;;;;;22.20;8.88;;;;;;;6.22;100.00;100146.41;5269368;28;20020;-73
2023/11/27 06:14:41;;;;;;;21.83;9.60;;;;;;;6.32;100.00;100142.78;5271849;28;20185;-73
2023/11/27 06:17:12;;;;;;;15.80;8.85;;;;;;;6.36;100.00;100131.66;5265835;28;20020;-73
2023/11/27 06:19:43;;;;;;;21.95;9.73;;;;;;;6.34;100.00;100123.00;5274592;28;20030;-74
2023/11/27 06:22:14;;;;;;;20.40;9.55;;;;;;;6.47;100.00;100112.72;5269362;28;20027;-73
2023/11/27 06:24:44;;;;;;;19.70;8.82;;;;;;;6.40;100.00;100101.03;5271373;28;20472;-73
2023/11/27 06:27:16;;;;;;;17.13;8.75;;;;;;;6.41;100.00;100092.06;5271725;28;20020;-73
2023/11/27 06:29:46;;;;;;;17.65;9.32;;;;;;;6.29;100.00;100096.00;5268195;28;20028;-73
2023/11/27 06:32:20;;;;;;;19.52;10.45;;;;;;;6.37;100.00;100085.34;5270690;28;20020;-72
2023/11/27 06:34:51;;;;;;;19.98;8.60;;;;;;;6.32;100.00;100079.66;5262963;28;20091;-73
2023/11/27 06:37:21;;;;;;;20.77;8.65;;;;;;;6.43;100.00;100073.25;5270535;28;20087;-73
2023/11/27 06:39:52;;;;;;;23.67;9.98;;;;;;;6.48;100.00;100066.47;5268406;28;20477;-73
2023/11/27 06:42:22;;;;;;;20.45;8.85;;;;;;;6.44;100.00;100065.09;5276842;28;20016;-73
2023/11/27 06:44:53;;;;;;;18.85;9.38;;;;;;;6.66;100.00;100060.19;5273253;28;20031;-73
2023/11/27 06:47:24;;;;;;;22.05;9.18;;;;;;;6.75;100.00;100062.75;5271598;28;20516;-72
2023/11/27 06:49:54;;;;;;;22.73;8.25;;;;;;;6.67;100.00;100056.53;5268325;28;20024;-73
2023/11/27 06:52:25;;;;;;;15.50;8.13;;;;;;;6.62;100.00;100049.00;5266636;28;20783;-72
2023/11/27 06:54:56;;;;;;;16.35;8.10;;;;;;;6.54;100.00;100050.84;5271986;28;20067;-75
2023/11/27 06:57:26;;;;;;;14.68;8.13;;;;;;;6.65;100.00;100050.53;5270585;28;20081;-75
2023/11/27 06:59:57;;;;;;;19.80;7.72;;;;;;;6.57;100.00;100053.16;5269929;28;20027;-75
2023/11/27 07:02:30;;;;;;;14.75;7.00;;;;;;;6.59;100.00;100043.19;5269791;28;20091;-75
2023/11/27 07:05:00;;;;;;;15.60;6.93;;;;;;;6.63;100.00;100040.06;5270220;28;20028;-75
2023/11/27 07:07:31;;;;;;;13.77;7.72;;;;;;;6.68;100.00;100047.56;5274575;28;20024;-75
2023/11/27 07:10:02;;;;;;;11.02;7.15;;;;;;;6.77;100.00;100037.75;5269551;27;20457;-75
2023/11/27 07:12:34;;;;;;;15.27;7.32;;;;;;;6.69;100.00;100031.41;5269425;28;20020;-75
2023/11/27 07:15:05;;;;;;;14.98;7.28;;;;;;;6.73;100.00;100016.75;5273520;28;20040;-75
2023/11/27 07:17:36;;;;;;;10.93;7.10;;;;;;;6.80;100.00;100029.44;5268208;28;20020;-75
2023/11/27 07:20:07;;;;;;;16.45;8.95;;;;;;;6.77;100.00;100009.25;5266851;28;20455;-75
2023/11/27 07:22:37;;;;;;;12.02;6.90;;;;;;;6.69;100.00;100019.91;5269990;28;20059;-75
2023/11/27 07:25:08;;;;;;;13.80;7.10;;;;;;;6.62;100.00;100016.19;5268884;28;20116;-75
2023/11/27 07:27:40;;;;;;;10.68;6.57;;;;;;;6.80;100.00;100005.44;5273952;28;20039;-75
2023/11/27 07:30:12;;;;;;;14.07;6.68;;;;;;;6.78;100.00;100015.41;5265872;28;20020;-75
2023/11/27 07:32:44;;;;;;;18.02;7.55;;;;;;;6.83;100.00;99999.78;5273503;28;20354;-75
2023/11/27 07:35:15;;;;;;;14.63;7.55;;;;;;;6.77;100.00;99998.59;5268697;28;20027;-75
2023/11/27 07:37:45;;;;;;;15.10;8.30;;;;;;;6.75;100.00;99992.59;5269602;28;20488;-74
2023/11/27 07:40:16;;;;;;;12.25;6.75;;;;;;;6.86;100.00;99994.97;5266458;28;20503;-75
2023/11/27 07:42:46;;;;;;;13.45;7.32;;;;;;;6.82;100.00;99996.28;5270765;28;20019;-73
2023/11/27 07:45:17;;;;;;;15.60;7.80;;;;;;;6.84;100.00;99988.97;5272651;28;20047;-74
2023/11/27 07:47:47;;;;;;;13.55;6.88;;;;;;;6.85;100.00;99979.13;5271082;28;20491;-74
2023/11/27 07:50:18;;;;;;;13.07;6.97;;;;;;;6.87;100.00;99977.94;5269883;28;20078;-74
2023/11/27 07:52:48;;;;;;;13.02;6.95;;;;;;;6.82;100.00;99977.59;5268833;28;20027;-74
2023/11/27 07:55:19;;;;;;;12.75;6.82;;;;;;;6.79;100.00;99975.28;5270923;28;20031;-74
2023/11/27 07:57:50;;;;;;;12.05;6.68;;;;;;;6.81;100.00;99980.44;5270872;28;20023;-74
2023/11/27 08:00:20;;;;;;;12.05;6.80;;;;;;;6.79;100.00;99971.78;5268641;28;20027;-74
2023/11/27 08:02:53;;;;;;;11.98;6.45;;;;;;;6.96;100.00;99963.66;5270606;28;20024;-74
2023/11/27 08:05:24;;;;;;;13.23;5.63;;;;;;;6.84;100.00;99964.13;5268556;28;20024;-74
2023/11/27 08:07:55;;;;;;;9.38;5.30;;;;;;;6.60;100.00;99954.25;5270608;27;20466;-74
2023/11/27 08:10:28;;;;;;;12.55;6.00;;;;;;;6.87;100.00;99950.47;5271282;28;20111;-74
2023/11/27 08:12:58;;;;;;;11.40;5.63;;;;;;;6.89;100.00;99948.47;5269989;28;20028;-74
2023/11/27 08:15:29;;;;;;;17.13;5.63;;;;;;;6.96;100.00;99947.66;5271269;28;21235;-74
2023/11/27 08:18:04;;;;;;;8.32;5.07;;;;;;;7.00;100.00;99935.66;5267885;27;20024;-74
2023/11/27 08:20:38;;;;;;;9.48;5.25;;;;;;;6.86;100.00;99938.13;5270059;28;20818;-74
2023/11/27 08:23:08;;;;;;;10.13;5.07;;;;;;;7.06;100.00;99936.00;5269771;28;20496;-75
2023/11/27 08:25:41;;;;;;;8.52;4.78;;;;;;;7.12;100.00;99927.31;5270461;28;20110;-74
2023/11/27 08:28:12;;;;;;;8.48;4.40;;;;;;;6.98;100.00;99920.84;5270048;28;20024;-74
2023/11/27 08:30:45;;;;;;;8.52;3.92;;;;;;;7.08;100.00;99917.97;5268351;28;20076;-75
2023/11/27 08:33:15;;;;;;;9.80;4.55;;;;;;;6.95;100.00;99918.47;5268722;28;20016;-74
2023/11/27 08:35:46;;;;;;;6.88;4.15;;;;;;;6.99;100.00;99923.31;5271610;28;20031;-74
2023/11/27 08:38:16;;;;;;;9.27;4.38;;;;;;;6.95;100.00;99910.50;5266371;28;20134;-74
2023/11/27 08:40:47;;;;;;;6.70;4.10;;;;;;;6.92;100.00;99900.97;5266013;28;20041;-75
2023/11/27 08:43:17;;;;;;;6.85;3.75;;;;;;;6.99;100.00;99901.16;5268731;28;20515;-75
2023/11/27 08:45:49;;;;;;;6.78;4.20;;;;;;;6.92;100.00;99898.31;5269429;28;20019;-74
2023/11/27 08:48:19;;;;;;;6.25;3.90;;;;;;;6.85;100.00;99886.66;5269293;28;20366;-74
2023/11/27 08:50:50;;;;;;;8.07;4.63;;;;;;;6.93;100.00;99889.31;5268113;28;20020;-74
2023/11/27 08:53:20;;;;;;;9.85;4.68;;;;;;;7.06;100.00;99890.66;5268526;28;20406;-74
2023/11/27 08:55:51;;;;;;;10.60;4.93;;;;;;;6.84;100.00;99885.00;5267975;28;20026;-74
2023/11/27 08:58:21;;;;;;;12.32;4.93;;;;;;;6.69;100.00;99873.31;5265798;28;20669;-74
2023/11/27 09:00:52;;;;;;;9.38;4.80;;;;;;;6.81;100.00;99868.47;5269184;28;20027;-74
2023/11/27 09:03:23;;;;;;;7.68;3.97;;;;;;;6.69;100.00;99871.47;5266118;28;20028;-74
2023/11/27 09:05:54;;;;;;;10.63;5.07;;;;;;;6.90;100.00;99870.16;5271126;28;20046;-74
2023/11/27 09:08:24;;;;;;;9.02;4.78;;;;;;;6.97;100.00;99871.97;5267597;28;20024;-75
2023/11/27 09:10:55;;;;;;;9.95;5.45;;;;;;;7.05;100.00;99857.00;5268851;28;20525;-74
2023/11/27 09:13:25;;;;;;;8.52;5.05;;;;;;;6.85;100.00;99853.81;5266331;28;20054;-73
2023/11/27 09:15:56;;;;;;;9.48;5.00;;;;;;;7.00;100.00;99852.97;5269478;28;20036;-74
2023/11/27 09:18:26;;;;;;;9.00;4.63;;;;;;;7.13;100.00;99840.97;5268643;28;20034;-74
2023/11/27 09:20:57;;;;;;;9.18;4.85;;;;;;;7.11;100.00;99837.63;5266028;28;20024;-74
2023/11/27 09:23:27;;;;;;;7.57;4.68;;;;;;;6.97;100.00;99831.16;5269946;28;20124;-74
2023/11/27 09:25:58;;;;;;;6.18;4.20;;;;;;;6.95;100.00;99835.81;5266437;28;20020;-74
2023/11/27 09:28:29;;;;;;;9.27;5.30;;;;;;;7.13;100.00;99827.63;5268188;28;20674;-74
2023/11/27 09:31:01;;;;;;;7.28;4.45;;;;;;;7.13;100.00;99816.94;5266073;28;20039;-74
2023/11/27 09:33:34;;;;;;;7.55;4.20;;;;;;;6.99;100.00;99808.66;5267996;28;20430;-74
2023/11/27 09:36:06;;;;;;;6.60;3.90;;;;;;;7.08;100.00;99816.63;5267927;28;20027;-74
2023/11/27 09:38:37;;;;;;;5.28;3.42;;;;;;;7.14;100.00;99813.31;5264478;28;20115;-74
2023/11/27 09:41:07;;;;;;;6.90;3.70;;;;;;;7.02;100.00;99815.47;5266773;28;20028;-74
2023/11/27 09:43:40;;;;;;;5.20;3.35;;;;;;;7.19;100.00;99813.63;5269450;28;20062;-74
2023/11/27 09:46:17;;;;;;;7.13;2.88;;;;;;;7.13;100.00;99803.63;5267570;28;20031;-74
2023/11/27 09:48:50;;;;;;;6.65;2.95;;;;;;;7.17;100.00;99802.28;5269642;28;20080;-74
2023/11/27 09:51:23;;;;;;;5.68;3.00;;;;;;;7.14;100.00;99794.63;5262623;28;20022;-74
2023/11/27 09:53:56;;;;;;;5.32;2.90;;;;;;;7.12;100.00;99792.13;5268729;28;20042;-74
2023/11/27 09:56:28;;;;;;;6.00;3.05;;;;;;;7.12;100.00;99780.63;5267371;28;20024;-74
2023/11/27 09:59:01;;;;;;;15.15;7.07;;;;;;;7.15;100.00;99781.13;5266829;28;20024;-74
2023/11/27 10:01:32;;;;;;;3.53;2.33;;;;;;;7.13;100.00;99771.63;5267925;28;20059;-74
2023/11/27 10:04:07;;;;;;;5.38;2.80;;;;;;;7.17;100.00;99778.28;5266547;28;20039;-74
2023/11/27 10:06:42;;;;;;;4.75;2.72;;;;;;;7.29;100.00;99770.78;5268485;28;20501;-74
2023/11/27 10:09:14;;;;;;;4.00;2.78;;;;;;;7.42;100.00;99768.38;5262333;28;20418;-74
2023/11/27 10:11:50;;;;;;;3.65;2.30;;;;;;;7.21;100.00;99766.28;5268150;28;20094;-74
2023/11/27 10:14:24;;;;;;;5.70;2.40;;;;;;;7.24;100.00;99750.75;5267441;28;20031;-74
2023/11/27 10:16:58;;;;;;;4.57;2.45;;;;;;;7.30;100.00;99751.91;5266920;27;20036;-74
2023/11/27 10:19:29;;;;;;;5.07;2.30;;;;;;;7.16;100.00;99739.28;5267036;28;20020;-74
2023/11/27 10:21:59;;;;;;;3.67;2.08;;;;;;;7.38;100.00;99745.69;5266858;28;20462;-74
2023/11/27 10:24:33;;;;;;;4.50;2.25;;;;;;;7.25;100.00;99727.59;5267485;28;20031;-74
2023/11/27 10:27:09;;;;;;;3.05;2.05;;;;;;;7.30;100.00;99733.22;5266821;28;20028;-74
2023/11/27 10:29:40;;;;;;;24.35;9.00;;;;;;;7.43;100.00;99724.66;5266377;28;20050;-74
2023/11/27 10:32:11;;;;;;;3.83;2.30;;;;;;;7.32;100.00;99720.53;5266068;28;20130;-74
2023/11/27 10:34:41;;;;;;;3.08;1.73;;;;;;;7.20;100.00;99714.75;5267824;28;20388;-74
2023/11/27 10:37:13;;;;;;;2.50;1.80;;;;;;;7.30;100.00;99714.56;5266890;28;20111;-74
2023/11/27 10:39:48;;;;;;;3.08;1.77;;;;;;;7.37;100.00;99712.84;5263869;28;20100;-74
2023/11/27 10:42:22;;;;;;;2.38;1.67;;;;;;;7.22;100.00;99712.75;5265179;28;20493;-74
2023/11/27 10:44:55;;;;;;;2.07;1.60;;;;;;;7.24;100.00;99709.91;5264965;28;20077;-74
2023/11/27 10:47:26;;;;;;;3.40;1.92;;;;;;;7.33;100.00;99695.56;5264932;28;20755;-74
2023/11/27 10:49:59;;;;;;;2.40;1.65;;;;;;;7.40;100.00;99688.50;5267423;28;20028;-74
2023/11/27 10:52:30;;;;;;;4.32;2.20;;;;;;;7.36;100.00;99675.69;5262635;28;20149;-73
2023/11/27 10:55:03;;;;;;;3.65;2.22;;;;;;;7.37;100.00;99672.00;5263760;28;20247;-74
2023/11/27 10:57:37;;;;;;;4.15;1.92;;;;;;;7.37;100.00;99666.66;5260886;28;20081;-73
2023/11/27 11:00:08;;;;;;;4.55;2.08;;;;;;;7.34;100.00;99661.69;5256112;28;20445;-72
2023/11/27 11:02:39;;;;;;;3.65;2.08;;;;;;;7.36;100.00;99663.16;5264983;28;20103;-73
2023/11/27 11:05:14;;;;;;;2.65;1.92;;;;;;;7.42;100.00;99654.47;5263954;28;20028;-73
2023/11/27 11:07:47;;;;;;;3.70;2.10;;;;;;;7.44;100.00;99652.47;5263020;28;20036;-72
2023/11/27 11:10:19;;;;;;;2.90;1.90;;;;;;;7.45;100.00;99653.28;5262653;28;20058;-73
2023/11/27 11:12:50;;;;;;;2.55;2.10;;;;;;;7.40;100.00;99643.13;5262782;28;20023;-73
2023/11/27 11:15:31;;;;;;;3.97;2.50;;;;;;;7.46;100.00;99633.59;5263455;28;20024;-72
2023/11/27 11:18:14;;;;;;;4.85;2.60;;;;;;;7.49;100.00;99630.59;5265738;28;20028;-73
2023/11/27 11:20:46;;;;;;;5.13;2.20;;;;;;;7.62;100.00;99627.31;5268358;28;20031;-73
2023/11/27 11:23:24;;;;;;;3.88;2.50;;;;;;;7.63;100.00;99623.66;5267785;28;20027;-73
2023/11/27 11:26:21;;;;;;;7.63;3.13;;;;;;;7.78;100.00;99636.06;5266669;28;20043;-73
2023/11/27 11:29:11;;;;;;;4.55;2.55;;;;;;;7.69;100.00;99609.63;5265923;28;20506;-72
2023/11/27 11:31:44;;;;;;;3.83;2.33;;;;;;;7.55;100.00;99613.88;5266474;28;20397;-73
2023/11/27 11:34:20;;;;;;;3.63;2.15;;;;;;;7.52;100.00;99601.69;5265525;28;20024;-72
2023/11/27 11:37:00;;;;;;;3.80;2.40;;;;;;;7.61;100.00;99589.13;5267164;28;20061;-72
2023/11/27 11:39:30;;;;;;;4.38;3.00;;;;;;;7.70;100.00;99588.06;5264839;28;20035;-73